Time;durP1;ratioP1;P1;durP2;ratioP2;P2;SDS_P1;SDS_P2;PMS_P1;PMS_P2;Temp;Humidity;BMP_temperature;BMP_pressure;BME280_temperature;BME280_humidity;BME280_pressure;Samples;Min_cycle;Max_cycle;Signal;HPM_P1;HPM_P2
2024/04/03 00:00:04;;;;;;;231.73;64.77;;;;;;;;;;4995343;28;20777;-49
2024/04/03 00:02:30;;;;;;;230.68;63.17;;;;;;;;;;4995711;28;20407;-50
2024/04/03 00:04:56;;;;;;;230.53;63.27;;;;;;;;;;4995686;28;20208;-49
2024/04/03 00:07:22;;;;;;;233.23;67.03;;;;;;;;;;4995599;28;20416;-48
2024/04/03 00:09:48;;;;;;;231.37;63.80;;;;;;;;;;4995690;28;20420;-47
2024/04/03 00:12:14;;;;;;;234.95;69.30;;;;;;;;;;4982451;28;20478;-49
2024/04/03 00:14:40;;;;;;;231.50;63.00;;;;;;;;;;4986024;28;20214;-47
2024/04/03 00:17:06;;;;;;;233.07;66.20;;;;;;;;;;4993161;28;20451;-50
2024/04/03 00:19:32;;;;;;;230.37;62.57;;;;;;;;;;4989111;28;20461;-50
2024/04/03 00:21:58;;;;;;;231.32;62.40;;;;;;;;;;4993205;28;20483;-50
2024/04/03 00:24:24;;;;;;;234.37;65.33;;;;;;;;;;4994869;28;20303;-49
2024/04/03 00:26:50;;;;;;;235.63;69.90;;;;;;;;;;4993932;28;20415;-49
2024/04/03 00:29:16;;;;;;;232.30;64.20;;;;;;;;;;4989929;28;20416;-50
2024/04/03 00:31:42;;;;;;;230.13;63.13;;;;;;;;;;4988685;28;20420;-48
2024/04/03 00:34:08;;;;;;;230.80;64.77;;;;;;;;;;4987425;28;20475;-49
2024/04/03 00:36:34;;;;;;;234.47;65.47;;;;;;;;;;4994101;28;20423;-49
2024/04/03 00:39:00;;;;;;;232.97;65.57;;;;;;;;;;4994056;28;20890;-48
2024/04/03 00:41:29;;;;;;;232.37;66.93;;;;;;;;;;4994138;28;20412;-47
2024/04/03 00:43:55;;;;;;;234.95;69.35;;;;;;;;;;4994465;28;21105;-48
2024/04/03 00:46:21;;;;;;;230.40;64.20;;;;;;;;;;4988888;28;20470;-48
2024/04/03 00:48:47;;;;;;;231.48;62.75;;;;;;;;;;4986410;28;20408;-48
2024/04/03 00:51:13;;;;;;;230.27;61.27;;;;;;;;;;4993271;28;20560;-49
2024/04/03 00:53:39;;;;;;;231.93;65.32;;;;;;;;;;4992689;28;20963;-50
2024/04/03 00:56:08;;;;;;;233.10;66.10;;;;;;;;;;4989777;28;20216;-50
2024/04/03 00:58:35;;;;;;;230.23;62.22;;;;;;;;;;4993883;28;20976;-50
2024/04/03 01:01:02;;;;;;;233.30;65.95;;;;;;;;;;4993095;28;20178;-49
2024/04/03 01:03:29;;;;;;;231.82;63.85;;;;;;;;;;4993277;28;20201;-49
2024/04/03 01:06:13;;;;;;;234.32;66.78;;;;;;;;;;4990795;28;20177;-49
2024/04/03 01:08:39;;;;;;;233.82;65.75;;;;;;;;;;4991075;28;20195;-50
2024/04/03 01:11:05;;;;;;;233.77;65.77;;;;;;;;;;4989605;28;20185;-50
2024/04/03 01:13:31;;;;;;;236.13;68.47;;;;;;;;;;4987999;28;20440;-49
2024/04/03 01:16:03;;;;;;;233.00;66.90;;;;;;;;;;4985868;28;21260;-50
2024/04/03 01:18:29;;;;;;;233.65;64.20;;;;;;;;;;4992957;28;20692;-50
2024/04/03 01:20:55;;;;;;;234.75;66.25;;;;;;;;;;4990461;28;20190;-49
2024/04/03 01:23:24;;;;;;;233.55;65.75;;;;;;;;;;4993413;28;21527;-50
2024/04/03 01:25:50;;;;;;;233.98;66.68;;;;;;;;;;4992740;28;20244;-48
2024/04/03 01:28:17;;;;;;;234.10;65.88;;;;;;;;;;4992945;28;20178;-48
2024/04/03 01:30:43;;;;;;;231.82;63.92;;;;;;;;;;4992908;28;20190;-50
2024/04/03 01:33:09;;;;;;;233.70;66.30;;;;;;;;;;4992299;28;20172;-49
2024/04/03 01:35:35;;;;;;;231.67;63.80;;;;;;;;;;4992795;28;20420;-50
2024/04/03 01:38:01;;;;;;;232.50;65.05;;;;;;;;;;4992594;28;20474;-47
2024/04/03 01:40:27;;;;;;;232.17;64.90;;;;;;;;;;4993077;28;20181;-50
2024/04/03 01:42:53;;;;;;;235.50;67.72;;;;;;;;;;4991537;28;20990;-49
2024/04/03 01:45:19;;;;;;;234.10;65.80;;;;;;;;;;4986947;28;20225;-49
2024/04/03 01:47:46;;;;;;;229.53;63.40;;;;;;;;;;4992227;28;20420;-48
2024/04/03 01:50:21;;;;;;;233.30;63.50;;;;;;;;;;4990739;28;20424;-50
2024/04/03 01:52:48;;;;;;;232.93;64.88;;;;;;;;;;4992714;28;20212;-49
2024/04/03 01:55:14;;;;;;;237.48;67.63;;;;;;;;;;4992336;28;20280;-49
2024/04/03 01:57:40;;;;;;;232.20;63.28;;;;;;;;;;4991949;28;20209;-50
2024/04/03 02:00:07;;;;;;;231.57;64.27;;;;;;;;;;4992502;28;20188;-48
2024/04/03 02:02:33;;;;;;;232.13;64.47;;;;;;;;;;4987594;28;20900;-49
2024/04/03 02:04:59;;;;;;;233.32;67.57;;;;;;;;;;4991523;28;20193;-47
2024/04/03 02:07:25;;;;;;;233.20;66.63;;;;;;;;;;4988437;28;20540;-48
2024/04/03 02:09:51;;;;;;;234.63;70.43;;;;;;;;;;4991726;28;20495;-49
2024/04/03 02:12:19;;;;;;;231.87;67.43;;;;;;;;;;4992378;28;20421;-48
2024/04/03 02:14:45;;;;;;;233.65;66.50;;;;;;;;;;4992221;28;20924;-49
2024/04/03 02:17:11;;;;;;;230.60;63.27;;;;;;;;;;4991957;28;20204;-50
2024/04/03 02:19:37;;;;;;;232.40;66.77;;;;;;;;;;4988192;28;20511;-48
2024/04/03 02:22:03;;;;;;;233.53;70.63;;;;;;;;;;4975430;28;20423;-49
2024/04/03 02:24:29;;;;;;;231.87;64.50;;;;;;;;;;4987062;28;20521;-49
2024/04/03 02:26:55;;;;;;;233.50;67.13;;;;;;;;;;4984183;28;20411;-48
2024/04/03 02:29:21;;;;;;;233.48;69.57;;;;;;;;;;4991374;28;20992;-48
2024/04/03 02:31:48;;;;;;;233.45;67.20;;;;;;;;;;4991097;28;20683;-49
2024/04/03 02:34:14;;;;;;;231.53;64.67;;;;;;;;;;4991749;28;20204;-48
2024/04/03 02:36:40;;;;;;;233.77;68.27;;;;;;;;;;4991489;28;20831;-48
2024/04/03 02:39:06;;;;;;;231.93;67.60;;;;;;;;;;4991702;28;21129;-48
2024/04/03 02:41:31;;;;;;;234.38;69.32;;;;;;;;;;4991789;28;20407;-50
2024/04/03 02:43:57;;;;;;;232.73;65.83;;;;;;;;;;4991224;28;20201;-48
2024/04/03 02:46:23;;;;;;;233.67;69.53;;;;;;;;;;4989275;28;20416;-50
2024/04/03 02:48:49;;;;;;;232.47;66.87;;;;;;;;;;4991509;28;20416;-48
2024/04/03 02:51:16;;;;;;;235.77;70.10;;;;;;;;;;4986291;28;21038;-50
2024/04/03 02:53:42;;;;;;;235.30;68.45;;;;;;;;;;4990976;28;20949;-50
2024/04/03 02:56:08;;;;;;;231.30;64.28;;;;;;;;;;4991082;28;20184;-48
2024/04/03 02:58:35;;;;;;;232.90;68.45;;;;;;;;;;4990398;28;20211;-49
2024/04/03 03:01:01;;;;;;;232.82;66.65;;;;;;;;;;4988255;28;20173;-49
2024/04/03 03:03:29;;;;;;;235.32;70.45;;;;;;;;;;4991293;28;20216;-51
2024/04/03 03:05:55;;;;;;;233.35;67.55;;;;;;;;;;4986167;28;20169;-50
2024/04/03 03:08:21;;;;;;;233.18;69.70;;;;;;;;;;4984723;28;20191;-49
2024/04/03 03:10:47;;;;;;;235.00;70.15;;;;;;;;;;4990951;28;20181;-48
2024/04/03 03:13:13;;;;;;;231.27;65.07;;;;;;;;;;4991314;28;20640;-48
2024/04/03 03:15:39;;;;;;;231.77;64.87;;;;;;;;;;4991273;28;20479;-49
2024/04/03 03:18:05;;;;;;;235.97;71.20;;;;;;;;;;4994275;28;20474;-49
2024/04/03 03:20:31;;;;;;;234.17;65.80;;;;;;;;;;4981338;28;20439;-49
2024/04/03 03:22:57;;;;;;;232.47;65.50;;;;;;;;;;4989457;28;20826;-50
2024/04/03 03:25:23;;;;;;;235.20;67.73;;;;;;;;;;4988271;28;20792;-49
2024/04/03 03:27:49;;;;;;;231.27;63.83;;;;;;;;;;4993231;28;20491;-47
2024/04/03 03:30:15;;;;;;;231.60;66.50;;;;;;;;;;4996302;28;20420;-49
2024/04/03 03:32:41;;;;;;;232.13;65.10;;;;;;;;;;4995920;28;20412;-48
2024/04/03 03:35:07;;;;;;;236.77;68.80;;;;;;;;;;4995736;28;20936;-48
2024/04/03 03:37:33;;;;;;;233.55;69.35;;;;;;;;;;4995707;28;20436;-48
2024/04/03 03:40:01;;;;;;;233.43;67.13;;;;;;;;;;4995980;28;20641;-49
2024/04/03 03:42:27;;;;;;;233.18;65.00;;;;;;;;;;4995819;28;20411;-48
2024/04/03 03:44:53;;;;;;;238.60;73.50;;;;;;;;;;4995751;28;20197;-46
2024/04/03 03:47:19;;;;;;;234.23;67.73;;;;;;;;;;4995432;28;20528;-48
2024/04/03 03:52:40;;;;;;;230.98;64.85;;;;;;;;;;4995352;28;20490;-48
2024/04/03 03:55:06;;;;;;;235.30;67.28;;;;;;;;;;4995210;28;20189;-47
2024/04/03 03:57:32;;;;;;;233.55;66.30;;;;;;;;;;4995075;28;20169;-49
2024/04/03 03:59:59;;;;;;;232.00;65.97;;;;;;;;;;4995413;28;20687;-49
2024/04/03 04:02:25;;;;;;;232.13;66.13;;;;;;;;;;4991761;28;20403;-51
2024/04/03 04:04:51;;;;;;;233.15;65.22;;;;;;;;;;4995158;28;20252;-47
2024/04/03 04:07:21;;;;;;;233.32;66.85;;;;;;;;;;4995001;28;20177;-48
2024/04/03 04:09:48;;;;;;;235.25;67.82;;;;;;;;;;4995259;28;20184;-49
2024/04/03 04:12:14;;;;;;;233.50;65.75;;;;;;;;;;4995724;28;20220;-48
2024/04/03 04:14:40;;;;;;;231.18;64.35;;;;;;;;;;4995875;28;20562;-48
2024/04/03 04:17:06;;;;;;;235.38;69.97;;;;;;;;;;4995235;28;20189;-49
2024/04/03 04:19:32;;;;;;;232.90;65.90;;;;;;;;;;4995360;28;20699;-49
2024/04/03 04:21:58;;;;;;;232.77;66.23;;;;;;;;;;4995106;28;20991;-49
2024/04/03 04:24:24;;;;;;;232.37;67.50;;;;;;;;;;4995031;28;20944;-48
2024/04/03 04:26:50;;;;;;;232.97;66.80;;;;;;;;;;4995672;28;20746;-49
2024/04/03 04:29:16;;;;;;;233.07;65.20;;;;;;;;;;4994441;28;20416;-48
2024/04/03 04:31:42;;;;;;;233.93;68.33;;;;;;;;;;4995072;28;20449;-49
2024/04/03 04:34:07;;;;;;;230.17;63.43;;;;;;;;;;4995486;28;20440;-47
2024/04/03 04:36:33;;;;;;;232.87;66.50;;;;;;;;;;4994763;28;20420;-48
2024/04/03 04:38:59;;;;;;;231.27;66.63;;;;;;;;;;4995207;28;20558;-49
2024/04/03 04:41:25;;;;;;;233.27;66.40;;;;;;;;;;4995303;28;20439;-48
2024/04/03 04:43:51;;;;;;;234.63;67.90;;;;;;;;;;4995076;28;20435;-48
2024/04/03 04:46:17;;;;;;;233.60;69.80;;;;;;;;;;4994470;28;20414;-50
2024/04/03 04:48:43;;;;;;;234.05;69.80;;;;;;;;;;4994528;28;20916;-50
2024/04/03 04:51:09;;;;;;;233.20;68.97;;;;;;;;;;4994746;28;20239;-49
2024/04/03 04:53:35;;;;;;;231.77;65.00;;;;;;;;;;4994450;28;20869;-50
2024/04/03 04:56:02;;;;;;;231.50;67.30;;;;;;;;;;4994013;28;20409;-51
2024/04/03 04:58:28;;;;;;;234.85;70.88;;;;;;;;;;4993879;28;20999;-48
2024/04/03 05:01:01;;;;;;;234.67;69.47;;;;;;;;;;4982685;28;20192;-49
2024/04/03 05:03:27;;;;;;;232.55;66.97;;;;;;;;;;4993962;28;20920;-49
2024/04/03 05:05:53;;;;;;;235.27;71.35;;;;;;;;;;4993818;28;20692;-51
2024/04/03 05:08:19;;;;;;;233.53;69.17;;;;;;;;;;4993889;28;20193;-49
2024/04/03 05:10:49;;;;;;;237.03;73.40;;;;;;;;;;4994499;28;20416;-49
2024/04/03 05:13:16;;;;;;;233.02;68.80;;;;;;;;;;4994941;28;20423;-49
2024/04/03 05:15:42;;;;;;;238.85;75.45;;;;;;;;;;4993675;28;20181;-49
2024/04/03 05:18:07;;;;;;;235.20;70.30;;;;;;;;;;4993962;28;20206;-49
2024/04/03 05:20:33;;;;;;;232.17;66.60;;;;;;;;;;4994405;28;20432;-49
2024/04/03 05:22:59;;;;;;;232.97;69.27;;;;;;;;;;4994008;28;20422;-48
2024/04/03 05:25:25;;;;;;;232.47;66.10;;;;;;;;;;4993606;28;20478;-50
2024/04/03 05:27:51;;;;;;;232.83;68.27;;;;;;;;;;4993727;28;20479;-48
2024/04/03 05:30:17;;;;;;;235.20;72.30;;;;;;;;;;4993742;28;20421;-49
2024/04/03 05:32:43;;;;;;;233.03;67.87;;;;;;;;;;4993702;28;20420;-48
2024/04/03 05:35:09;;;;;;;236.07;69.83;;;;;;;;;;4993553;28;20464;-49
2024/04/03 05:37:35;;;;;;;234.60;68.27;;;;;;;;;;4993556;28;20837;-46
2024/04/03 05:40:04;;;;;;;235.10;68.80;;;;;;;;;;5004191;22;20991;-44
2024/04/03 05:42:30;;;;;;;234.75;66.45;;;;;;;;;;4977273;28;20917;-45
2024/04/03 05:44:56;;;;;;;231.97;65.50;;;;;;;;;;4983808;28;20186;-45
2024/04/03 05:47:22;;;;;;;235.07;69.50;;;;;;;;;;4991950;28;20416;-45
2024/04/03 05:49:48;;;;;;;238.57;72.00;;;;;;;;;;4989081;28;20445;-44
2024/04/03 05:52:14;;;;;;;232.80;65.78;;;;;;;;;;4973994;28;20443;-44
2024/04/03 05:54:40;;;;;;;233.97;68.00;;;;;;;;;;4988698;28;20648;-45
2024/04/03 05:57:06;;;;;;;236.25;70.10;;;;;;;;;;4992347;28;20417;-44
2024/04/03 05:59:32;;;;;;;240.17;78.90;;;;;;;;;;4992143;28;20216;-44
2024/04/03 06:01:59;;;;;;;235.57;72.77;;;;;;;;;;4980426;28;20772;-44
2024/04/03 06:04:25;;;;;;;236.20;69.40;;;;;;;;;;4987021;28;20763;-45
2024/04/03 06:06:52;;;;;;;245.70;76.43;;;;;;;;;;4987201;28;20264;-44
2024/04/03 06:09:19;;;;;;;234.75;68.32;;;;;;;;;;4985546;28;20555;-45
2024/04/03 06:11:45;;;;;;;237.63;71.20;;;;;;;;;;4991696;28;20185;-45
2024/04/03 06:14:11;;;;;;;236.97;73.40;;;;;;;;;;4984272;28;20220;-44
2024/04/03 06:16:37;;;;;;;235.03;71.73;;;;;;;;;;4991837;28;20428;-44
2024/04/03 06:19:03;;;;;;;235.97;69.80;;;;;;;;;;4991720;28;20518;-45
2024/04/03 06:21:29;;;;;;;237.25;72.28;;;;;;;;;;4991913;28;20778;-44
2024/04/03 06:23:55;;;;;;;241.90;76.28;;;;;;;;;;4991381;28;20199;-44
2024/04/03 06:26:21;;;;;;;238.17;71.77;;;;;;;;;;4983838;28;20268;-44
2024/04/03 06:28:47;;;;;;;240.53;75.17;;;;;;;;;;4991648;28;20440;-44
2024/04/03 06:31:13;;;;;;;235.17;69.20;;;;;;;;;;4991822;28;20452;-44
2024/04/03 06:33:39;;;;;;;237.47;74.70;;;;;;;;;;4991582;28;20950;-44
2024/04/03 06:36:05;;;;;;;233.80;67.50;;;;;;;;;;4991539;28;20501;-44
2024/04/03 06:38:31;;;;;;;238.48;72.22;;;;;;;;;;4991627;28;20474;-44
2024/04/03 06:40:57;;;;;;;238.85;74.63;;;;;;;;;;4991641;28;20181;-45
2024/04/03 06:43:23;;;;;;;234.27;67.30;;;;;;;;;;4991812;28;20663;-44
2024/04/03 06:45:56;;;;;;;241.30;75.35;;;;;;;;;;4991079;28;20974;-45
2024/04/03 06:48:22;;;;;;;240.45;75.90;;;;;;;;;;4991466;28;20236;-44
2024/04/03 06:50:52;;;;;;;236.03;71.00;;;;;;;;;;4991009;28;20210;-44
2024/04/03 06:53:18;;;;;;;235.23;70.07;;;;;;;;;;4991587;28;20423;-44
2024/04/03 06:55:57;;;;;;;236.38;69.00;;;;;;;;;;4991266;28;20186;-45
2024/04/03 06:58:23;;;;;;;234.55;69.43;;;;;;;;;;4991505;28;20290;-44
2024/04/03 07:00:49;;;;;;;235.38;67.65;;;;;;;;;;4991430;28;20272;-45
2024/04/03 07:03:16;;;;;;;236.10;69.20;;;;;;;;;;4989374;28;20177;-44
2024/04/03 07:05:44;;;;;;;238.50;69.95;;;;;;;;;;4990982;28;20170;-44
2024/04/03 07:08:10;;;;;;;235.63;68.95;;;;;;;;;;4982991;28;20176;-45
2024/04/03 07:10:36;;;;;;;233.35;66.05;;;;;;;;;;4980690;28;20209;-45
2024/04/03 07:13:03;;;;;;;234.67;68.87;;;;;;;;;;4989569;28;20649;-44
2024/04/03 07:15:29;;;;;;;235.93;67.57;;;;;;;;;;4975443;28;20419;-44
2024/04/03 07:17:56;;;;;;;238.93;72.55;;;;;;;;;;4981723;28;20676;-45
2024/04/03 07:20:25;;;;;;;234.88;68.30;;;;;;;;;;4989910;28;20715;-44
2024/04/03 07:22:52;;;;;;;238.68;71.57;;;;;;;;;;4985429;28;20167;-46
2024/04/03 07:25:18;;;;;;;240.43;74.63;;;;;;;;;;4984606;28;20183;-45
2024/04/03 07:27:45;;;;;;;237.98;69.15;;;;;;;;;;4983109;28;20175;-45
2024/04/03 07:30:11;;;;;;;237.85;70.97;;;;;;;;;;4986231;28;20477;-44
2024/04/03 07:32:37;;;;;;;241.15;73.88;;;;;;;;;;4985270;28;20302;-45
2024/04/03 07:35:03;;;;;;;236.23;70.37;;;;;;;;;;4974889;28;20652;-45
2024/04/03 07:37:29;;;;;;;238.25;73.88;;;;;;;;;;4988235;28;20405;-43
2024/04/03 07:39:55;;;;;;;238.57;72.87;;;;;;;;;;4986719;28;20256;-45
2024/04/03 07:42:21;;;;;;;236.87;68.97;;;;;;;;;;4985000;28;20456;-43
2024/04/03 07:44:47;;;;;;;238.37;70.90;;;;;;;;;;4983051;28;20425;-45
2024/04/03 07:47:13;;;;;;;237.68;72.00;;;;;;;;;;4989562;28;20462;-44
2024/04/03 07:49:39;;;;;;;232.90;66.40;;;;;;;;;;4987774;28;20222;-45
2024/04/03 07:52:05;;;;;;;235.67;67.17;;;;;;;;;;4990395;28;20424;-45
2024/04/03 07:54:31;;;;;;;236.83;69.20;;;;;;;;;;4986548;28;20475;-44
2024/04/03 07:56:57;;;;;;;235.37;67.77;;;;;;;;;;4984017;28;20425;-45
2024/04/03 07:59:23;;;;;;;237.10;73.37;;;;;;;;;;4983254;28;20467;-45
2024/04/03 08:01:49;;;;;;;232.87;64.60;;;;;;;;;;4987619;28;20418;-44
2024/04/03 08:04:15;;;;;;;233.63;66.50;;;;;;;;;;4991831;28;20539;-44
2024/04/03 08:06:41;;;;;;;235.85;66.45;;;;;;;;;;4989149;28;20418;-45
2024/04/03 08:09:07;;;;;;;235.07;64.93;;;;;;;;;;4992258;28;20206;-45
2024/04/03 08:11:36;;;;;;;237.97;70.37;;;;;;;;;;4990200;28;20188;-45
2024/04/03 08:14:02;;;;;;;235.80;67.30;;;;;;;;;;4986612;28;20423;-45
2024/04/03 08:16:28;;;;;;;241.57;74.30;;;;;;;;;;4992645;28;20185;-45
2024/04/03 08:18:54;;;;;;;237.40;70.73;;;;;;;;;;4990932;28;20472;-45
2024/04/03 08:21:20;;;;;;;238.50;71.30;;;;;;;;;;4990036;28;20423;-45
2024/04/03 08:23:46;;;;;;;238.40;70.87;;;;;;;;;;4988447;28;20415;-45
2024/04/03 08:26:11;;;;;;;243.27;76.20;;;;;;;;;;4989510;28;20449;-44
2024/04/03 08:28:39;;;;;;;240.93;74.27;;;;;;;;;;4989254;28;20455;-44
2024/04/03 08:31:15;;;;;;;239.43;73.75;;;;;;;;;;4978514;28;20460;-44
2024/04/03 08:33:41;;;;;;;240.23;70.63;;;;;;;;;;4990670;28;20589;-45
2024/04/03 08:36:07;;;;;;;240.48;71.80;;;;;;;;;;4989266;28;20177;-46
2024/04/03 08:38:34;;;;;;;239.40;71.78;;;;;;;;;;4987154;28;20203;-45
2024/04/03 08:41:00;;;;;;;240.95;72.82;;;;;;;;;;4985736;28;20194;-45
2024/04/03 08:43:26;;;;;;;238.55;70.75;;;;;;;;;;4992600;28;20180;-45
2024/04/03 08:45:54;;;;;;;240.38;72.00;;;;;;;;;;4990389;28;20564;-44
2024/04/03 08:48:22;;;;;;;241.15;71.75;;;;;;;;;;4991466;28;20554;-45
2024/04/03 08:50:49;;;;;;;242.98;78.00;;;;;;;;;;4990964;28;20185;-45
2024/04/03 08:53:20;;;;;;;239.37;71.70;;;;;;;;;;4987536;28;20188;-45
2024/04/03 08:55:46;;;;;;;240.03;71.27;;;;;;;;;;4974819;28;20430;-44
2024/04/03 08:58:12;;;;;;;242.48;72.68;;;;;;;;;;4991479;28;20912;-45
2024/04/03 09:00:39;;;;;;;242.63;72.82;;;;;;;;;;4988792;28;20229;-45
2024/04/03 09:03:05;;;;;;;246.07;78.10;;;;;;;;;;4985331;28;20188;-45
2024/04/03 09:05:31;;;;;;;242.60;74.30;;;;;;;;;;4986637;28;20841;-45
2024/04/03 09:08:01;;;;;;;244.10;74.60;;;;;;;;;;4988908;28;20787;-45
2024/04/03 09:10:30;;;;;;;240.18;72.35;;;;;;;;;;4986842;28;20438;-45
2024/04/03 09:12:56;;;;;;;241.25;71.22;;;;;;;;;;4990431;28;20179;-44
2024/04/03 09:15:22;;;;;;;241.77;74.33;;;;;;;;;;4989662;28;20698;-44
2024/04/03 09:17:48;;;;;;;242.27;75.63;;;;;;;;;;4988314;28;20541;-44
2024/04/03 09:20:23;;;;;;;241.25;73.35;;;;;;;;;;4987115;28;20579;-45
2024/04/03 09:22:49;;;;;;;242.75;74.35;;;;;;;;;;4985308;28;20183;-44
2024/04/03 09:25:15;;;;;;;241.60;72.97;;;;;;;;;;4992141;28;20183;-45
2024/04/03 09:27:41;;;;;;;245.90;80.80;;;;;;;;;;4990060;28;20427;-44
2024/04/03 09:30:12;;;;;;;242.93;75.60;;;;;;;;;;4992369;28;20435;-45
2024/04/03 09:32:38;;;;;;;241.93;75.43;;;;;;;;;;4985847;28;20473;-45
2024/04/03 09:35:06;;;;;;;255.77;85.17;;;;;;;;;;4981867;28;20180;-44
2024/04/03 09:37:32;;;;;;;247.45;80.82;;;;;;;;;;4985279;28;20402;-45
2024/04/03 09:39:58;;;;;;;245.20;78.45;;;;;;;;;;4991185;28;20749;-44
2024/04/03 09:42:25;;;;;;;246.00;80.47;;;;;;;;;;4990108;28;20185;-45
2024/04/03 09:45:05;;;;;;;244.67;75.60;;;;;;;;;;4987971;28;20455;-45
2024/04/03 09:47:33;;;;;;;246.45;79.15;;;;;;;;;;4987413;28;20432;-45
2024/04/03 09:50:00;;;;;;;246.27;79.77;;;;;;;;;;4989541;28;20253;-45
2024/04/03 09:52:26;;;;;;;246.20;80.47;;;;;;;;;;4987350;28;20412;-45
2024/04/03 09:54:52;;;;;;;246.67;80.00;;;;;;;;;;4992008;28;20497;-45
2024/04/03 09:57:19;;;;;;;249.47;81.90;;;;;;;;;;4992135;28;20550;-45
2024/04/03 09:59:48;;;;;;;246.15;79.63;;;;;;;;;;4991601;28;20467;-44
2024/04/03 10:02:14;;;;;;;244.23;76.70;;;;;;;;;;4989470;28;20561;-45
2024/04/03 10:04:42;;;;;;;241.38;74.47;;;;;;;;;;4974710;28;20821;-44
2024/04/03 10:07:17;;;;;;;239.30;71.17;;;;;;;;;;4992061;28;20211;-45
2024/04/03 10:09:43;;;;;;;242.77;75.90;;;;;;;;;;4986721;28;20518;-45
2024/04/03 10:12:16;;;;;;;244.10;78.30;;;;;;;;;;4985088;28;20418;-45
2024/04/03 10:14:42;;;;;;;242.32;76.38;;;;;;;;;;4985748;28;20504;-46
2024/04/03 10:17:16;;;;;;;240.90;74.97;;;;;;;;;;4979071;28;20219;-45
2024/04/03 10:19:42;;;;;;;243.00;75.25;;;;;;;;;;4982854;28;20203;-45
2024/04/03 10:22:14;;;;;;;237.37;70.67;;;;;;;;;;4992113;28;20653;-45
2024/04/03 10:24:42;;;;;;;243.77;78.15;;;;;;;;;;4984228;28;20773;-45
2024/04/03 10:27:08;;;;;;;241.25;75.32;;;;;;;;;;4991569;28;20221;-44
2024/04/03 10:29:34;;;;;;;241.57;75.50;;;;;;;;;;4991786;28;20345;-46
2024/04/03 10:32:00;;;;;;;243.97;77.63;;;;;;;;;;4982448;28;20503;-44
2024/04/03 10:34:26;;;;;;;242.57;78.70;;;;;;;;;;4979862;28;20935;-44
2024/04/03 10:36:52;;;;;;;245.83;79.90;;;;;;;;;;4990106;28;20418;-45
2024/04/03 10:39:18;;;;;;;241.43;74.47;;;;;;;;;;4986298;28;20514;-45
2024/04/03 10:41:44;;;;;;;244.80;80.50;;;;;;;;;;4986295;28;20427;-45
2024/04/03 10:44:11;;;;;;;251.27;88.30;;;;;;;;;;4981899;28;20419;-45
2024/04/03 10:46:37;;;;;;;245.30;79.97;;;;;;;;;;4991468;28;20510;-44
2024/04/03 10:49:04;;;;;;;250.20;88.30;;;;;;;;;;4989031;28;20435;-44
2024/04/03 10:51:31;;;;;;;247.27;82.73;;;;;;;;;;4991509;28;20416;-45
2024/04/03 10:53:57;;;;;;;248.63;83.57;;;;;;;;;;4975794;28;20414;-44
2024/04/03 10:56:26;;;;;;;248.37;81.97;;;;;;;;;;4978207;28;20430;-44
2024/04/03 10:58:54;;;;;;;246.90;81.90;;;;;;;;;;4982658;28;20598;-45
2024/04/03 11:01:20;;;;;;;245.37;81.07;;;;;;;;;;4983601;28;20428;-44
2024/04/03 11:03:46;;;;;;;247.87;84.63;;;;;;;;;;4985188;28;20508;-44
2024/04/03 11:06:12;;;;;;;247.77;82.83;;;;;;;;;;4991008;28;20415;-44
2024/04/03 11:08:40;;;;;;;246.97;83.17;;;;;;;;;;4985546;28;20438;-45
2024/04/03 11:11:07;;;;;;;246.13;81.77;;;;;;;;;;4987609;28;20413;-46
2024/04/03 11:13:34;;;;;;;247.93;82.47;;;;;;;;;;4982204;28;20411;-45
2024/04/03 11:16:00;;;;;;;247.03;82.40;;;;;;;;;;4983801;28;20478;-45
2024/04/03 11:18:27;;;;;;;245.77;81.77;;;;;;;;;;4976285;28;20461;-44
2024/04/03 11:20:53;;;;;;;244.20;76.27;;;;;;;;;;4982488;28;20416;-45
2024/04/03 11:23:19;;;;;;;245.10;77.87;;;;;;;;;;4991031;28;20412;-45
2024/04/03 11:25:45;;;;;;;247.53;80.50;;;;;;;;;;4990879;28;20412;-44
2024/04/03 11:28:13;;;;;;;245.55;81.75;;;;;;;;;;4981207;28;20424;-44
2024/04/03 11:30:39;;;;;;;243.70;78.35;;;;;;;;;;4981673;28;20181;-45
2024/04/03 11:33:06;;;;;;;245.40;80.00;;;;;;;;;;4985059;28;20191;-44
2024/04/03 11:35:32;;;;;;;244.00;79.32;;;;;;;;;;4990971;28;20178;-45
2024/04/03 11:38:01;;;;;;;244.10;78.05;;;;;;;;;;4982891;28;20629;-45
2024/04/03 11:40:27;;;;;;;243.32;75.20;;;;;;;;;;5041540;22;20304;-44
2024/04/03 11:42:53;;;;;;;247.93;81.60;;;;;;;;;;5038220;28;20269;-44
2024/04/03 11:45:19;;;;;;;243.30;78.50;;;;;;;;;;5026789;28;20177;-44
2024/04/03 11:47:45;;;;;;;242.32;76.10;;;;;;;;;;5033841;28;20209;-44
2024/04/03 11:50:11;;;;;;;246.70;82.63;;;;;;;;;;5031310;28;20554;-44
2024/04/03 11:52:37;;;;;;;244.10;77.63;;;;;;;;;;5031808;28;20779;-44
2024/04/03 11:55:03;;;;;;;245.77;78.73;;;;;;;;;;5032230;28;20889;-44
2024/04/03 11:57:29;;;;;;;242.03;77.43;;;;;;;;;;5032488;28;20498;-45
2024/04/03 11:59:56;;;;;;;246.50;82.88;;;;;;;;;;5034678;28;20461;-44
2024/04/03 12:02:22;;;;;;;243.15;79.25;;;;;;;;;;5032933;28;20171;-44
2024/04/03 12:04:48;;;;;;;250.57;88.38;;;;;;;;;;5033876;28;20186;-44
2024/04/03 12:07:14;;;;;;;249.60;82.60;;;;;;;;;;5031064;28;20186;-44
2024/04/03 12:09:42;;;;;;;245.03;79.57;;;;;;;;;;5028306;28;20439;-44
2024/04/03 12:12:09;;;;;;;251.17;86.40;;;;;;;;;;5033299;28;20415;-44
2024/04/03 12:14:35;;;;;;;246.85;82.13;;;;;;;;;;5033289;28;20797;-44
2024/04/03 12:17:05;;;;;;;253.27;89.63;;;;;;;;;;5033168;28;20178;-44
2024/04/03 12:22:05;;;;;;;248.13;82.23;;;;;;;;;;5025189;28;20915;-45
2024/04/03 12:24:32;;;;;;;249.97;86.23;;;;;;;;;;5032485;28;21041;-45
2024/04/03 12:26:58;;;;;;;247.60;84.47;;;;;;;;;;5032709;28;20808;-45
2024/04/03 12:29:24;;;;;;;250.27;86.33;;;;;;;;;;5032580;28;20504;-44
2024/04/03 12:31:51;;;;;;;246.87;82.17;;;;;;;;;;5032149;28;20504;-44
2024/04/03 12:34:17;;;;;;;244.17;78.40;;;;;;;;;;5033193;28;20488;-44
2024/04/03 12:36:43;;;;;;;249.17;83.57;;;;;;;;;;5032705;28;20489;-44
2024/04/03 12:39:09;;;;;;;242.00;76.00;;;;;;;;;;5033062;28;20504;-44
2024/04/03 12:41:35;;;;;;;243.03;77.33;;;;;;;;;;5032965;28;20410;-44
2024/04/03 12:44:01;;;;;;;243.43;78.65;;;;;;;;;;5032934;28;20427;-44
2024/04/03 12:46:28;;;;;;;245.33;80.20;;;;;;;;;;5032849;28;20202;-45
2024/04/03 12:48:54;;;;;;;246.27;80.15;;;;;;;;;;5030789;28;20452;-44
2024/04/03 12:51:20;;;;;;;243.93;79.15;;;;;;;;;;5033000;28;20187;-44
2024/04/03 12:53:46;;;;;;;249.67;83.27;;;;;;;;;;5032724;28;20187;-44
2024/04/03 12:56:12;;;;;;;244.82;76.40;;;;;;;;;;5031458;28;20452;-44
2024/04/03 12:58:38;;;;;;;243.70;79.45;;;;;;;;;;5032268;28;20703;-44
2024/04/03 13:01:05;;;;;;;243.43;79.00;;;;;;;;;;5032947;28;20263;-44
2024/04/03 13:03:33;;;;;;;252.55;88.80;;;;;;;;;;5031879;28;20409;-44
2024/04/03 13:05:59;;;;;;;239.68;72.00;;;;;;;;;;5032322;28;20204;-44
2024/04/03 13:08:25;;;;;;;242.73;78.83;;;;;;;;;;5032980;28;20560;-44
2024/04/03 13:10:51;;;;;;;241.37;74.97;;;;;;;;;;5032477;28;20432;-44
2024/04/03 13:13:17;;;;;;;242.45;77.25;;;;;;;;;;5032480;28;20413;-44
2024/04/03 13:15:43;;;;;;;239.63;72.70;;;;;;;;;;5031918;28;20262;-44
2024/04/03 13:18:09;;;;;;;241.40;74.35;;;;;;;;;;5032322;28;20803;-44
2024/04/03 13:20:35;;;;;;;239.90;74.53;;;;;;;;;;5032433;28;20213;-44
2024/04/03 13:23:01;;;;;;;243.43;79.22;;;;;;;;;;5032077;28;20931;-44
2024/04/03 13:25:28;;;;;;;241.38;75.15;;;;;;;;;;5031861;28;20190;-44
2024/04/03 13:27:54;;;;;;;243.80;78.72;;;;;;;;;;5032225;28;20181;-44
2024/04/03 13:30:20;;;;;;;243.70;74.95;;;;;;;;;;5032130;28;20186;-44
2024/04/03 13:32:46;;;;;;;241.60;74.33;;;;;;;;;;5032103;28;20173;-44
2024/04/03 13:35:13;;;;;;;247.60;81.13;;;;;;;;;;5031910;28;20405;-44
2024/04/03 13:37:40;;;;;;;242.50;77.97;;;;;;;;;;5031826;28;20441;-44
2024/04/03 13:40:08;;;;;;;240.02;75.13;;;;;;;;;;5031859;28;20458;-44
2024/04/03 13:42:35;;;;;;;237.27;71.30;;;;;;;;;;5031934;28;20199;-44
2024/04/03 13:45:01;;;;;;;243.13;77.93;;;;;;;;;;5031491;28;20997;-44
2024/04/03 13:47:27;;;;;;;241.48;76.82;;;;;;;;;;5032032;28;20187;-44
2024/04/03 13:49:53;;;;;;;246.80;83.37;;;;;;;;;;5032099;28;20285;-44
2024/04/03 13:52:19;;;;;;;243.53;77.07;;;;;;;;;;5031753;28;20413;-44
2024/04/03 13:54:49;;;;;;;243.73;78.37;;;;;;;;;;5031488;28;20421;-44
2024/04/03 13:57:15;;;;;;;243.68;77.47;;;;;;;;;;5030958;28;20459;-44
2024/04/03 13:59:41;;;;;;;243.53;78.07;;;;;;;;;;5031175;28;20604;-44
2024/04/03 14:02:10;;;;;;;243.48;77.22;;;;;;;;;;5031461;28;20418;-44
2024/04/03 14:04:36;;;;;;;243.93;77.78;;;;;;;;;;5031555;28;20175;-44